Botruc 33 — WDC3314 — position and weather

sailwx.info

Track history (hours):
 
Tides and Currents Weather Stations Pressure Air Temp Water Temp Dewpoint Dewpoint Depression Visibility Wind Speed Wind Dir Waves Ship Positions

Botruc 33

Owner: L & M Botruc, Galliano, LA. More information available from US FCC via Universal Licensing System and Coast Guard Vessel Documentation Center.

Last reported at 2017-Dec-09 04:37 UTC. Time now 2017-Dec-12 19:47 UTC.
Position N 29°34' W 092°18'.

Length 10 m; draft 3 m.

Type: Cargo ship. MMSI: 367005670.

Date/timePositionNaut miles runAvg speedWind from/ knotsBaromVisibWave heightAir tempDewpointWater temp
2017-Dec-09 04:37N 29°34' W 092°18'1 7.1
2017-Dec-09 04:30N 29°35' W 092°18'3 5.8
2017-Dec-09 04:00N 29°38' W 092°16'3 5.8
2017-Dec-09 03:30N 29°40' W 092°15'3 6.6
2017-Dec-09 03:00N 29°44' W 092°15'3 6.4
2017-Dec-09 02:30N 29°46' W 092°12'2 5.0
2017-Dec-09 02:00N 29°47' W 092°09'1 1.5
2017-Dec-09 01:30N 29°47' W 092°09'0 0.0
2017-Dec-09 01:00N 29°47' W 092°09'0 0.1
2017-Dec-09 00:29N 29°48' W 092°09'0 0.0
2017-Dec-08 23:59N 29°48' W 092°09'0 0.0
2017-Dec-08 23:29N 29°48' W 092°09'0 0.0
2017-Dec-08 22:59N 29°48' W 092°09'0 0.0
2017-Dec-08 22:28N 29°48' W 092°09'0 0.0
2017-Dec-08 21:58N 29°48' W 092°09'0 0.0
2017-Dec-08 21:28N 29°48' W 092°09'0 0.0
2017-Dec-08 20:58N 29°48' W 092°09'0 0.0
2017-Dec-08 20:28N 29°48' W 092°09'0 0.0
2017-Dec-08 19:58N 29°48' W 092°09'0 0.0
2017-Dec-08 19:28N 29°48' W 092°09'0 0.0
2017-Dec-08 18:58N 29°48' W 092°09'0 0.0
2017-Dec-08 18:28N 29°48' W 092°09'0 0.0
2017-Dec-08 17:58N 29°48' W 092°09'0 0.0
2017-Dec-08 17:28N 29°48' W 092°09'0 0.0
2017-Dec-08 16:52N 29°48' W 092°09'0 0.0
2017-Dec-08 16:25N 29°48' W 092°09'0 0.2
2017-Dec-08 15:58N 29°48' W 092°09'0 0.0
2017-Dec-08 15:28N 29°48' W 092°09'0 0.0
2017-Dec-08 14:58N 29°48' W 092°09'0 0.0
2017-Dec-08 14:28N 29°48' W 092°09'0 0.0
2017-Dec-08 13:58N 29°48' W 092°09'0 0.0
2017-Dec-08 13:28N 29°48' W 092°09'0 0.0
2017-Dec-08 12:58N 29°48' W 092°09'0 0.0
2017-Dec-08 12:28N 29°48' W 092°09'0 0.0
2017-Dec-08 11:58N 29°48' W 092°09'0 0.0
2017-Dec-08 11:28N 29°48' W 092°09'0 0.0
2017-Dec-08 10:58N 29°48' W 092°09'0 0.0
2017-Dec-08 10:28N 29°48' W 092°09'0 0.0
2017-Dec-08 09:58N 29°48' W 092°09'0 0.0
2017-Dec-08 09:28N 29°48' W 092°09'0 0.0
2017-Dec-08 08:58N 29°48' W 092°09'0 0.0
2017-Dec-08 08:28N 29°48' W 092°09'0 0.0
2017-Dec-08 07:58N 29°48' W 092°09'0 0.0
2017-Dec-08 07:28N 29°48' W 092°09'0 0.0
2017-Dec-08 06:58N 29°48' W 092°09'0 0.0
2017-Dec-08 06:31N 29°48' W 092°09'0 0.0
2017-Dec-08 06:01N 29°48' W 092°09'0 0.0
2017-Dec-08 05:30N 29°48' W 092°09'0 0.0
2017-Dec-08 05:00N 29°48' W 092°09'0 0.0
2017-Dec-08 04:30N 29°48' W 092°09'0 0.0
2017-Dec-08 04:00N 29°48' W 092°09'0 0.0
2017-Dec-08 03:30N 29°48' W 092°09'0 0.0
2017-Dec-08 03:00N 29°48' W 092°09'0 0.0
2017-Dec-08 02:30N 29°48' W 092°09'0 0.0
2017-Dec-08 02:00N 29°48' W 092°09'0 0.0
2017-Dec-08 01:30N 29°48' W 092°09'0 0.0
2017-Dec-08 01:00N 29°48' W 092°09'0 0.0
2017-Dec-08 00:30N 29°48' W 092°09'0 0.1
2017-Dec-08 00:00N 29°48' W 092°09'0 0.2
2017-Dec-07 23:30N 29°47' W 092°09'0 0.0
2017-Dec-07 23:00N 29°47' W 092°09'0 0.0
2017-Dec-07 22:30N 29°47' W 092°09'0 0.0
2017-Dec-07 22:00N 29°47' W 092°09'0 0.0
2017-Dec-07 21:30N 29°47' W 092°09'0 0.0
2017-Dec-07 21:00N 29°47' W 092°09'0 0.0
2017-Dec-07 20:30N 29°47' W 092°09'0 0.0
2017-Dec-07 20:00N 29°47' W 092°09'0 0.0
2017-Dec-07 19:30N 29°47' W 092°09'0 0.0
2017-Dec-07 19:00N 29°47' W 092°09'0 0.0
2017-Dec-07 18:30N 29°47' W 092°09'0 0.0
2017-Dec-07 18:00N 29°47' W 092°09'0 0.0
2017-Dec-07 17:30N 29°47' W 092°09'0 0.0
2017-Dec-07 17:00N 29°47' W 092°09'0 0.0
2017-Dec-07 16:30N 29°47' W 092°09'0 0.0
2017-Dec-07 16:00N 29°47' W 092°09'0 0.0
2017-Dec-07 15:30N 29°47' W 092°09'0 0.0
2017-Dec-07 15:00N 29°47' W 092°09'0 0.0
2017-Dec-07 14:30N 29°47' W 092°09'0 0.0
2017-Dec-07 14:00N 29°47' W 092°09'0 0.0
2017-Dec-07 13:30N 29°47' W 092°09'0 0.1
2017-Dec-07 13:00N 29°48' W 092°09'0 0.0
2017-Dec-07 12:30N 29°48' W 092°09'0 0.0
2017-Dec-07 12:00N 29°48' W 092°09'0 0.0
2017-Dec-07 11:30N 29°48' W 092°09'0 0.0
2017-Dec-07 11:00N 29°48' W 092°09'0 0.0
2017-Dec-07 10:30N 29°48' W 092°09'0 0.0
2017-Dec-07 10:00N 29°48' W 092°09'0 0.0
2017-Dec-07 09:30N 29°48' W 092°09'0 0.0
2017-Dec-07 09:00N 29°48' W 092°09'0 0.0
2017-Dec-07 08:30N 29°48' W 092°09'0 0.0
2017-Dec-07 07:55N 29°48' W 092°09'0 0.0
2017-Dec-07 07:30N 29°48' W 092°09'0 0.0
2017-Dec-07 07:00N 29°48' W 092°09'0 0.0
2017-Dec-07 06:30N 29°48' W 092°09'0 0.0
2017-Dec-07 06:00N 29°48' W 092°09'0 0.0
2017-Dec-07 05:30N 29°48' W 092°09'0 0.0
2017-Dec-07 05:00N 29°48' W 092°09'0 0.0
2017-Dec-07 04:30N 29°48' W 092°09'0 0.5
2017-Dec-07 04:00N 29°47' W 092°09'0 0.1
2017-Dec-07 03:30N 29°47' W 092°09'1 2.4
2017-Dec-07 03:00N 29°47' W 092°10'3 6.7
2017-Dec-07 02:30N 29°45' W 092°13'4 7.3
2017-Dec-07 02:00N 29°41' W 092°15'  
2017-Dec-01 04:38N 29°34' W 092°18'1 6.9
2017-Dec-01 04:29N 29°35' W 092°18'3 6.5
2017-Dec-01 04:00N 29°38' W 092°16'3 6.5
2017-Dec-01 03:30N 29°41' W 092°15'3 6.7
2017-Dec-01 03:00N 29°44' W 092°14'4 7.1
2017-Dec-01 02:30N 29°46' W 092°11'2 4.1
2017-Dec-01 02:00N 29°48' W 092°09'0 0.0
2017-Dec-01 01:29N 29°48' W 092°09'0 0.0
2017-Dec-01 00:59N 29°48' W 092°09'0 0.0
2017-Dec-01 00:29N 29°48' W 092°09'0 0.0
2017-Nov-30 23:59N 29°48' W 092°09'0 0.0
2017-Nov-30 23:29N 29°48' W 092°09'0 0.0
2017-Nov-30 22:59N 29°48' W 092°09'0 0.0
2017-Nov-30 22:29N 29°48' W 092°09'0 0.0
2017-Nov-30 21:59N 29°48' W 092°09'0 0.0
2017-Nov-30 21:29N 29°48' W 092°09'0 0.0
2017-Nov-30 21:00N 29°48' W 092°09'0 0.0
2017-Nov-30 20:30N 29°48' W 092°09'0 0.0
2017-Nov-30 20:01N 29°48' W 092°09'0 0.0
2017-Nov-30 19:31N 29°48' W 092°09'0 0.0
2017-Nov-30 19:01N 29°48' W 092°09'0 0.0
2017-Nov-30 18:30N 29°48' W 092°09'0 0.0
2017-Nov-30 18:01N 29°48' W 092°09'0 0.0
2017-Nov-30 17:30N 29°48' W 092°09'0 0.0
2017-Nov-30 17:01N 29°48' W 092°09'0 0.0
2017-Nov-30 16:31N 29°48' W 092°09'0 0.0
2017-Nov-30 16:00N 29°48' W 092°09'0 0.0
2017-Nov-30 15:30N 29°48' W 092°09'0 0.1
2017-Nov-30 15:01N 29°48' W 092°09'0 0.0
2017-Nov-30 14:30N 29°48' W 092°09'0 0.0
2017-Nov-30 14:01N 29°48' W 092°09'0 0.0
2017-Nov-30 13:31N 29°48' W 092°09'0 0.0
2017-Nov-30 13:01N 29°48' W 092°09'0 0.0
2017-Nov-30 12:30N 29°48' W 092°09'0 0.1
2017-Nov-30 12:01N 29°48' W 092°09'0 0.0
2017-Nov-30 11:31N 29°48' W 092°09'0 0.0
2017-Nov-30 11:01N 29°48' W 092°09'0 0.0
2017-Nov-30 10:31N 29°48' W 092°09'1 1.1
2017-Nov-30 10:01N 29°47' W 092°09'3 5.9
2017-Nov-30 09:31N 29°46' W 092°12'3 6.5
2017-Nov-30 09:01N 29°43' W 092°15'  
Track history (hours):
 
Tides and Currents Weather Stations Pressure Air Temp Water Temp Dewpoint Dewpoint Depression Visibility Wind Speed Wind Dir Waves Ship Positions

Botruc 33

Owner: L & M Botruc, Galliano, LA. More information available from US FCC via Universal Licensing System and Coast Guard Vessel Documentation Center.

Last reported at 2017-Dec-09 04:37 UTC. Time now 2017-Dec-12 19:47 UTC.
Position N 29°34' W 092°18'.

Length 10 m; draft 3 m.

Type: Cargo ship. MMSI: 367005670.

Date/timePositionNaut miles runAvg speedWind from/ knotsBaromVisibWave heightAir tempDewpointWater temp
2017-Dec-09 04:37N 29°34' W 092°18'1 7.1
2017-Dec-09 04:30N 29°35' W 092°18'3 5.8
2017-Dec-09 04:00N 29°38' W 092°16'3 5.8
2017-Dec-09 03:30N 29°40' W 092°15'3 6.6
2017-Dec-09 03:00N 29°44' W 092°15'3 6.4
2017-Dec-09 02:30N 29°46' W 092°12'2 5.0
2017-Dec-09 02:00N 29°47' W 092°09'1 1.5
2017-Dec-09 01:30N 29°47' W 092°09'0 0.0
2017-Dec-09 01:00N 29°47' W 092°09'0 0.1
2017-Dec-09 00:29N 29°48' W 092°09'0 0.0
2017-Dec-08 23:59N 29°48' W 092°09'0 0.0
2017-Dec-08 23:29N 29°48' W 092°09'0 0.0
2017-Dec-08 22:59N 29°48' W 092°09'0 0.0
2017-Dec-08 22:28N 29°48' W 092°09'0 0.0
2017-Dec-08 21:58N 29°48' W 092°09'0 0.0
2017-Dec-08 21:28N 29°48' W 092°09'0 0.0
2017-Dec-08 20:58N 29°48' W 092°09'0 0.0
2017-Dec-08 20:28N 29°48' W 092°09'0 0.0
2017-Dec-08 19:58N 29°48' W 092°09'0 0.0
2017-Dec-08 19:28N 29°48' W 092°09'0 0.0
2017-Dec-08 18:58N 29°48' W 092°09'0 0.0
2017-Dec-08 18:28N 29°48' W 092°09'0 0.0
2017-Dec-08 17:58N 29°48' W 092°09'0 0.0
2017-Dec-08 17:28N 29°48' W 092°09'0 0.0
2017-Dec-08 16:52N 29°48' W 092°09'0 0.0
2017-Dec-08 16:25N 29°48' W 092°09'0 0.2
2017-Dec-08 15:58N 29°48' W 092°09'0 0.0
2017-Dec-08 15:28N 29°48' W 092°09'0 0.0
2017-Dec-08 14:58N 29°48' W 092°09'0 0.0
2017-Dec-08 14:28N 29°48' W 092°09'0 0.0
2017-Dec-08 13:58N 29°48' W 092°09'0 0.0
2017-Dec-08 13:28N 29°48' W 092°09'0 0.0
2017-Dec-08 12:58N 29°48' W 092°09'0 0.0
2017-Dec-08 12:28N 29°48' W 092°09'0 0.0
2017-Dec-08 11:58N 29°48' W 092°09'0 0.0
2017-Dec-08 11:28N 29°48' W 092°09'0 0.0
2017-Dec-08 10:58N 29°48' W 092°09'0 0.0
2017-Dec-08 10:28N 29°48' W 092°09'0 0.0
2017-Dec-08 09:58N 29°48' W 092°09'0 0.0
2017-Dec-08 09:28N 29°48' W 092°09'0 0.0
2017-Dec-08 08:58N 29°48' W 092°09'0 0.0
2017-Dec-08 08:28N 29°48' W 092°09'0 0.0
2017-Dec-08 07:58N 29°48' W 092°09'0 0.0
2017-Dec-08 07:28N 29°48' W 092°09'0 0.0
2017-Dec-08 06:58N 29°48' W 092°09'0 0.0
2017-Dec-08 06:31N 29°48' W 092°09'0 0.0
2017-Dec-08 06:01N 29°48' W 092°09'0 0.0
2017-Dec-08 05:30N 29°48' W 092°09'0 0.0
2017-Dec-08 05:00N 29°48' W 092°09'0 0.0
2017-Dec-08 04:30N 29°48' W 092°09'0 0.0
2017-Dec-08 04:00N 29°48' W 092°09'0 0.0
2017-Dec-08 03:30N 29°48' W 092°09'0 0.0
2017-Dec-08 03:00N 29°48' W 092°09'0 0.0
2017-Dec-08 02:30N 29°48' W 092°09'0 0.0
2017-Dec-08 02:00N 29°48' W 092°09'0 0.0
2017-Dec-08 01:30N 29°48' W 092°09'0 0.0
2017-Dec-08 01:00N 29°48' W 092°09'0 0.0
2017-Dec-08 00:30N 29°48' W 092°09'0 0.1
2017-Dec-08 00:00N 29°48' W 092°09'0 0.2
2017-Dec-07 23:30N 29°47' W 092°09'0 0.0
2017-Dec-07 23:00N 29°47' W 092°09'0 0.0
2017-Dec-07 22:30N 29°47' W 092°09'0 0.0
2017-Dec-07 22:00N 29°47' W 092°09'0 0.0
2017-Dec-07 21:30N 29°47' W 092°09'0 0.0
2017-Dec-07 21:00N 29°47' W 092°09'0 0.0
2017-Dec-07 20:30N 29°47' W 092°09'0 0.0
2017-Dec-07 20:00N 29°47' W 092°09'0 0.0
2017-Dec-07 19:30N 29°47' W 092°09'0 0.0
2017-Dec-07 19:00N 29°47' W 092°09'0 0.0
2017-Dec-07 18:30N 29°47' W 092°09'0 0.0
2017-Dec-07 18:00N 29°47' W 092°09'0 0.0
2017-Dec-07 17:30N 29°47' W 092°09'0 0.0
2017-Dec-07 17:00N 29°47' W 092°09'0 0.0
2017-Dec-07 16:30N 29°47' W 092°09'0 0.0
2017-Dec-07 16:00N 29°47' W 092°09'0 0.0
2017-Dec-07 15:30N 29°47' W 092°09'0 0.0
2017-Dec-07 15:00N 29°47' W 092°09'0 0.0
2017-Dec-07 14:30N 29°47' W 092°09'0 0.0
2017-Dec-07 14:00N 29°47' W 092°09'0 0.0
2017-Dec-07 13:30N 29°47' W 092°09'0 0.1
2017-Dec-07 13:00N 29°48' W 092°09'0 0.0
2017-Dec-07 12:30N 29°48' W 092°09'0 0.0
2017-Dec-07 12:00N 29°48' W 092°09'0 0.0
2017-Dec-07 11:30N 29°48' W 092°09'0 0.0
2017-Dec-07 11:00N 29°48' W 092°09'0 0.0
2017-Dec-07 10:30N 29°48' W 092°09'0 0.0
2017-Dec-07 10:00N 29°48' W 092°09'0 0.0
2017-Dec-07 09:30N 29°48' W 092°09'0 0.0
2017-Dec-07 09:00N 29°48' W 092°09'0 0.0
2017-Dec-07 08:30N 29°48' W 092°09'0 0.0
2017-Dec-07 07:55N 29°48' W 092°09'0 0.0
2017-Dec-07 07:30N 29°48' W 092°09'0 0.0
2017-Dec-07 07:00N 29°48' W 092°09'0 0.0
2017-Dec-07 06:30N 29°48' W 092°09'0 0.0
2017-Dec-07 06:00N 29°48' W 092°09'0 0.0
2017-Dec-07 05:30N 29°48' W 092°09'0 0.0
2017-Dec-07 05:00N 29°48' W 092°09'0 0.0
2017-Dec-07 04:30N 29°48' W 092°09'0 0.5
2017-Dec-07 04:00N 29°47' W 092°09'0 0.1
2017-Dec-07 03:30N 29°47' W 092°09'1 2.4
2017-Dec-07 03:00N 29°47' W 092°10'3 6.7
2017-Dec-07 02:30N 29°45' W 092°13'4 7.3
2017-Dec-07 02:00N 29°41' W 092°15'  
2017-Dec-01 04:38N 29°34' W 092°18'1 6.9
2017-Dec-01 04:29N 29°35' W 092°18'3 6.5
2017-Dec-01 04:00N 29°38' W 092°16'3 6.5
2017-Dec-01 03:30N 29°41' W 092°15'3 6.7
2017-Dec-01 03:00N 29°44' W 092°14'4 7.1
2017-Dec-01 02:30N 29°46' W 092°11'2 4.1
2017-Dec-01 02:00N 29°48' W 092°09'0 0.0
2017-Dec-01 01:29N 29°48' W 092°09'0 0.0
2017-Dec-01 00:59N 29°48' W 092°09'0 0.0
2017-Dec-01 00:29N 29°48' W 092°09'0 0.0
2017-Nov-30 23:59N 29°48' W 092°09'0 0.0
2017-Nov-30 23:29N 29°48' W 092°09'0 0.0
2017-Nov-30 22:59N 29°48' W 092°09'0 0.0
2017-Nov-30 22:29N 29°48' W 092°09'0 0.0
2017-Nov-30 21:59N 29°48' W 092°09'0 0.0
2017-Nov-30 21:29N 29°48' W 092°09'0 0.0
2017-Nov-30 21:00N 29°48' W 092°09'0 0.0
2017-Nov-30 20:30N 29°48' W 092°09'0 0.0
2017-Nov-30 20:01N 29°48' W 092°09'0 0.0
2017-Nov-30 19:31N 29°48' W 092°09'0 0.0
2017-Nov-30 19:01N 29°48' W 092°09'0 0.0
2017-Nov-30 18:30N 29°48' W 092°09'0 0.0
2017-Nov-30 18:01N 29°48' W 092°09'0 0.0
2017-Nov-30 17:30N 29°48' W 092°09'0 0.0
2017-Nov-30 17:01N 29°48' W 092°09'0 0.0
2017-Nov-30 16:31N 29°48' W 092°09'0 0.0
2017-Nov-30 16:00N 29°48' W 092°09'0 0.0
2017-Nov-30 15:30N 29°48' W 092°09'0 0.1
2017-Nov-30 15:01N 29°48' W 092°09'0 0.0
2017-Nov-30 14:30N 29°48' W 092°09'0 0.0
2017-Nov-30 14:01N 29°48' W 092°09'0 0.0
2017-Nov-30 13:31N 29°48' W 092°09'0 0.0
2017-Nov-30 13:01N 29°48' W 092°09'0 0.0
2017-Nov-30 12:30N 29°48' W 092°09'0 0.1
2017-Nov-30 12:01N 29°48' W 092°09'0 0.0
2017-Nov-30 11:31N 29°48' W 092°09'0 0.0
2017-Nov-30 11:01N 29°48' W 092°09'0 0.0
2017-Nov-30 10:31N 29°48' W 092°09'1 1.1
2017-Nov-30 10:01N 29°47' W 092°09'3 5.9
2017-Nov-30 09:31N 29°46' W 092°12'3 6.5
2017-Nov-30 09:01N 29°43' W 092°15'  

Dump ship's entire track history